ADDS METAR Data INFO
IDs: Format: Raw Decoded Include TAF

Data at: 2255 UTC 21 Feb 2018

K2W6 212237Z AUTO 19006KT 10SM CLR 23/16 A3032 RMK AO1
K2W6 212217Z AUTO 20007KT 10SM CLR 24/16 A3031 RMK AO1
K2W6 212157Z AUTO 21008KT 10SM CLR 25/16 A3031 RMK AO1
K2W6 212137Z AUTO 22008G15KT 10SM CLR 25/16 A3031 RMK AO1
K2W6 212117Z AUTO 21007G15KT 10SM CLR 26/16 A3031 RMK AO1
K2W6 212057Z AUTO 22007G15KT 10SM CLR 26/16 A3031 RMK AO1
K2W6 212037Z AUTO 22011G14KT 10SM CLR 26/16 A3031 RMK AO1
K2W6 212017Z AUTO 21012G15KT 10SM CLR 26/16 A3031 RMK AO1
K2W6 211957Z AUTO 23009G18KT 10SM CLR 25/16 A3032 RMK AO1
K2W6 211937Z AUTO 22009G18KT 10SM CLR 26/16 A3032 RMK AO1
K2W6 211917Z AUTO 22011G19KT 10SM CLR 25/16 A3032 RMK AO1
K2W6 211857Z AUTO 21011G18KT 10SM CLR 25/16 A3033 RMK AO1
K2W6 211837Z AUTO 22013G21KT 10SM CLR 25/16 A3034 RMK AO1
K2W6 211817Z AUTO 22011G19KT 170V240 10SM CLR 24/16 A3034 RMK AO1
K2W6 211757Z AUTO 20014G20KT 10SM CLR 23/16 A3035 RMK AO1
K2W6 211737Z AUTO 22014G20KT 10SM CLR 23/16 A3036 RMK AO1
K2W6 211717Z AUTO 22013G22KT 10SM CLR 22/16 A3037 RMK AO1
K2W6 211657Z AUTO 22014G20KT 10SM BKN022 22/16 A3038 RMK AO1
K2W6 211637Z AUTO 22011G17KT 10SM OVC022 21/16 A3040 RMK AO1
K2W6 211617Z AUTO 23011G17KT 10SM OVC020 20/16 A3041 RMK AO1
K2W6 211557Z AUTO 22013G18KT 10SM OVC022 20/16 A3041 RMK AO1
K2W6 211537Z AUTO 22010G17KT 10SM OVC020 20/16 A3041 RMK AO1
K2W6 211517Z AUTO 22010G17KT 10SM BKN020 20/16 A3041 RMK AO1
K2W6 211457Z AUTO 22011KT 10SM OVC018 19/16 A3042 RMK AO1
K2W6 211437Z AUTO 23009G15KT 10SM OVC012 18/16 A3042 RMK AO1
K2W6 211417Z AUTO 22010KT 10SM OVC012 18/16 A3042 RMK AO1
K2W6 211357Z AUTO 22009G15KT 10SM OVC012 17/16 A3042 RMK AO1
K2W6 211337Z AUTO 22009KT 10SM OVC012 17/16 A3041 RMK AO1
K2W6 211317Z AUTO 22008KT 10SM OVC010 17/16 A3041 RMK AO1
K2W6 211257Z AUTO 21008KT 10SM OVC010 17/16 A3041 RMK AO1
K2W6 211237Z AUTO 22007KT 10SM OVC010 17/16 A3040 RMK AO1
K2W6 210737Z AUTO 21008KT 10SM CLR 17/15 A3038 RMK AO1
K2W6 210717Z AUTO 21007KT 10SM CLR 17/16 A3038 RMK AO1
K2W6 210657Z AUTO 22006KT 10SM CLR 17/16 A3038 RMK AO1
K2W6 210637Z AUTO 21006KT 10SM CLR 17/16 A3038 RMK AO1
K2W6 210617Z AUTO 21006KT 10SM SCT027 17/15 A3038 RMK AO1
K2W6 210557Z AUTO 21008KT 10SM SCT029 17/15 A3038 RMK AO1
K2W6 201457Z AUTO 21008KT 10SM OVC004 14/13 A3044 RMK AO1
K2W6 201437Z AUTO 21007KT 5SM OVC004 13/13 A3044 RMK AO1
K2W6 201417Z AUTO 22007KT 4SM OVC004 13/12 A3044 RMK AO1
K2W6 201357Z AUTO 22010KT 5SM OVC004 13/12 A3044 RMK AO1
K2W6 201337Z AUTO 22009KT 10SM OVC004 13/12 A3044 RMK AO1
K2W6 201317Z AUTO 22006KT 10SM OVC004 13/12 A3044 RMK AO1
K2W6 201257Z AUTO 21007G14KT 10SM OVC004 12/12 A3043 RMK AO1
K2W6 201237Z AUTO 20004KT 10SM OVC004 12/12 A3043 RMK AO1
K2W6 201217Z AUTO 22007KT 7SM OVC002 12/12 A3042 RMK AO1
K2W6 201157Z AUTO 22010G18KT 10SM OVC002 12/12 A3042 RMK AO1
K2W6 201137Z AUTO 23008KT 10SM OVC002 12/12 A3041 RMK AO1
K2W6 201117Z AUTO 21005KT 5SM OVC002 12/12 A3041 RMK AO1
K2W6 201057Z AUTO 21005KT 3SM OVC002 12/12 A3040 RMK AO1